Time;durP1;ratioP1;P1;durP2;ratioP2;P2;SDS_P1;SDS_P2;PMS_P1;PMS_P2;Temp;Humidity;BMP_temperature;BMP_pressure;BME280_temperature;BME280_humidity;BME280_pressure;Samples;Min_cycle;Max_cycle;Signal;HPM_P1;HPM_P2
2022/03/28 00:01:52;;;;;;;10.57;8.70;;;19.00;45.20;;;;;;5119502;28;20046;-61
2022/03/28 00:04:19;;;;;;;10.82;7.93;;;19.10;45.20;;;;;;5118575;28;20371;-60
2022/03/28 00:06:45;;;;;;;10.38;8.60;;;19.10;45.30;;;;;;5118388;28;20018;-61
2022/03/28 00:09:11;;;;;;;10.95;9.18;;;19.00;45.20;;;;;;5118699;28;20026;-61
2022/03/28 00:11:37;;;;;;;11.13;8.32;;;19.00;45.20;;;;;;5118160;28;20011;-61
2022/03/28 00:14:04;;;;;;;9.57;8.57;;;19.10;45.30;;;;;;5117811;28;20103;-61
2022/03/28 00:16:30;;;;;;;9.38;8.30;;;19.10;45.30;;;;;;5118438;28;20020;-61
2022/03/28 00:18:57;;;;;;;9.77;8.25;;;19.10;45.30;;;;;;5118242;28;20099;-61
2022/03/28 00:21:24;;;;;;;9.23;8.25;;;19.10;45.30;;;;;;5117257;28;20020;-60
2022/03/28 00:23:51;;;;;;;9.70;7.93;;;19.00;45.20;;;;;;5116832;28;20027;-60
2022/03/28 00:26:17;;;;;;;9.73;8.05;;;19.00;45.20;;;;;;5116513;28;20016;-61
2022/03/28 00:28:43;;;;;;;9.82;8.38;;;19.00;45.20;;;;;;5116536;28;20020;-60
2022/03/28 00:31:09;;;;;;;9.07;7.85;;;19.00;45.20;;;;;;5116368;28;20044;-60
2022/03/28 00:33:35;;;;;;;9.60;7.55;;;19.00;45.20;;;;;;5116647;28;20019;-60
2022/03/28 00:36:01;;;;;;;10.35;8.13;;;19.00;45.20;;;;;;5099085;28;20377;-60
2022/03/28 00:38:28;;;;;;;9.48;7.95;;;19.00;45.20;;;;;;5117837;28;20035;-61
2022/03/28 00:40:54;;;;;;;10.68;8.30;;;19.00;45.20;;;;;;5117919;28;20012;-60
2022/03/28 00:43:20;;;;;;;9.77;8.65;;;19.00;45.20;;;;;;5100273;28;20036;-59
2022/03/28 00:45:46;;;;;;;9.32;8.10;;;19.00;45.20;;;;;;5118658;28;20007;-60
2022/03/28 00:48:12;;;;;;;9.52;8.48;;;19.00;45.20;;;;;;5119607;28;20177;-60
2022/03/28 00:50:38;;;;;;;8.95;7.78;;;19.00;45.20;;;;;;5118458;28;20015;-60
2022/03/28 00:53:05;;;;;;;8.98;7.82;;;19.00;45.20;;;;;;5117527;28;20015;-60
2022/03/28 00:55:31;;;;;;;9.90;8.52;;;18.90;45.20;;;;;;5117231;28;20019;-61
2022/03/28 00:57:59;;;;;;;8.75;7.72;;;18.90;45.20;;;;;;5117171;28;20023;-60
2022/03/28 01:00:25;;;;;;;10.05;7.80;;;18.90;45.20;;;;;;5117420;28;20038;-59
2022/03/28 01:02:51;;;;;;;9.60;8.32;;;18.90;45.20;;;;;;5117074;28;20466;-61
2022/03/28 01:05:18;;;;;;;9.98;7.88;;;18.90;45.20;;;;;;5116618;28;20099;-60
2022/03/28 01:07:44;;;;;;;8.98;7.85;;;18.90;45.30;;;;;;5115825;28;20068;-60
2022/03/28 01:10:10;;;;;;;10.23;8.15;;;18.90;45.20;;;;;;5115295;28;20023;-61
2022/03/28 01:12:36;;;;;;;9.73;8.23;;;18.90;45.20;;;;;;5115722;28;20091;-59
2022/03/28 01:15:03;;;;;;;9.48;8.32;;;18.90;45.20;;;;;;5115536;28;20023;-59
2022/03/28 01:20:14;;;;;;;9.35;7.28;;;18.90;45.20;;;;;;5118261;28;20027;-61
2022/03/28 01:22:41;;;;;;;9.30;7.97;;;18.90;45.20;;;;;;5121977;28;20068;-61
2022/03/28 01:25:07;;;;;;;8.75;7.57;;;18.80;45.20;;;;;;5122050;28;20020;-60
2022/03/28 01:27:37;;;;;;;10.75;8.40;;;18.90;45.20;;;;;;5122282;28;20012;-60
2022/03/28 01:30:07;;;;;;;8.75;7.82;;;18.80;45.10;;;;;;5122335;28;20040;-61
2022/03/28 01:32:33;;;;;;;8.68;7.65;;;18.80;45.10;;;;;;5122373;28;20057;-61
2022/03/28 01:34:59;;;;;;;10.35;7.47;;;18.90;45.10;;;;;;5121754;28;20034;-61
2022/03/28 01:37:25;;;;;;;9.15;7.68;;;18.90;45.20;;;;;;5118481;28;20016;-60
2022/03/28 01:39:51;;;;;;;10.13;7.85;;;18.80;45.10;;;;;;5100545;28;20034;-60
2022/03/28 01:42:17;;;;;;;9.77;7.43;;;18.90;45.20;;;;;;5118084;28;20385;-59
2022/03/28 01:44:43;;;;;;;9.07;7.75;;;18.80;45.10;;;;;;5118199;28;20107;-60
2022/03/28 01:47:10;;;;;;;9.18;7.78;;;18.80;45.10;;;;;;5099200;28;20020;-59
2022/03/28 01:49:36;;;;;;;10.05;8.50;;;18.80;45.10;;;;;;5117809;28;20378;-60
2022/03/28 01:52:05;;;;;;;9.23;7.78;;;18.80;45.10;;;;;;5121184;28;20359;-60
2022/03/28 01:54:31;;;;;;;9.75;7.68;;;18.80;45.10;;;;;;5120893;28;20026;-61
2022/03/28 01:56:58;;;;;;;8.63;7.65;;;18.80;45.70;;;;;;5121593;28;20020;-60
2022/03/28 01:59:24;;;;;;;9.35;8.38;;;18.80;45.10;;;;;;5119989;28;20034;-60
2022/03/28 02:01:51;;;;;;;8.85;7.10;;;18.80;45.10;;;;;;5119595;28;20494;-59
2022/03/28 02:04:18;;;;;;;10.45;7.88;;;18.80;45.10;;;;;;5119447;28;20038;-59
2022/03/28 02:06:44;;;;;;;8.63;7.72;;;18.80;45.10;;;;;;5099166;28;20023;-60
2022/03/28 02:09:11;;;;;;;9.98;7.82;;;18.80;45.10;;;;;;5099584;28;20020;-60
2022/03/28 02:11:38;;;;;;;10.85;7.72;;;18.80;45.20;;;;;;5116978;28;20012;-59
2022/03/28 02:14:04;;;;;;;8.77;7.70;;;18.80;45.20;;;;;;5116685;28;20024;-60
2022/03/28 02:16:30;;;;;;;8.52;7.50;;;18.80;45.20;;;;;;5116790;28;20027;-59
2022/03/28 02:18:56;;;;;;;10.05;7.72;;;18.80;45.10;;;;;;5116389;28;20016;-59
2022/03/28 02:21:23;;;;;;;8.15;7.13;;;18.80;45.20;;;;;;5115550;28;20469;-59
2022/03/28 02:23:50;;;;;;;9.60;7.45;;;18.70;45.10;;;;;;5116457;28;20036;-59
2022/03/28 02:26:16;;;;;;;8.80;7.72;;;18.70;45.10;;;;;;5116710;28;20028;-59
2022/03/28 02:28:41;;;;;;;8.93;7.25;;;18.70;45.00;;;;;;5116591;28;20031;-60
2022/03/28 02:31:10;;;;;;;10.75;7.55;;;18.70;45.10;;;;;;5115819;28;20066;-60
2022/03/28 02:33:36;;;;;;;8.23;7.30;;;18.70;45.00;;;;;;5116442;28;20019;-59
2022/03/28 02:36:02;;;;;;;7.93;7.13;;;18.70;45.10;;;;;;5116991;28;20069;-59
2022/03/28 02:38:29;;;;;;;10.10;7.60;;;18.70;45.00;;;;;;5099548;28;20019;-59
2022/03/28 02:40:59;;;;;;;8.07;6.82;;;18.70;45.10;;;;;;5099858;28;20094;-60
2022/03/28 02:43:25;;;;;;;9.43;7.38;;;18.70;45.10;;;;;;5118221;28;20103;-60
2022/03/28 02:45:51;;;;;;;8.55;7.65;;;18.70;45.10;;;;;;5117422;28;20050;-60
2022/03/28 02:48:17;;;;;;;11.90;7.40;;;18.70;45.10;;;;;;5099970;28;20012;-58
2022/03/28 02:50:45;;;;;;;8.38;7.47;;;18.70;45.10;;;;;;5115903;28;20069;-59
2022/03/28 02:53:11;;;;;;;8.32;7.38;;;18.70;45.10;;;;;;5114079;28;20469;-59
2022/03/28 02:55:38;;;;;;;8.65;7.65;;;18.70;45.10;;;;;;5114063;28;20022;-59
2022/03/28 02:58:05;;;;;;;8.10;7.30;;;18.70;45.00;;;;;;5114057;28;20040;-58
2022/03/28 03:00:32;;;;;;;8.07;7.18;;;18.70;45.00;;;;;;5114159;28;20423;-59
2022/03/28 03:02:59;;;;;;;8.73;7.50;;;18.60;45.00;;;;;;5114171;28;20016;-59
2022/03/28 03:05:24;;;;;;;8.75;7.55;;;18.70;45.10;;;;;;5114313;28;20461;-59
2022/03/28 03:07:50;;;;;;;9.80;7.63;;;18.70;45.10;;;;;;5116401;28;20027;-59
2022/03/28 03:10:19;;;;;;;12.75;7.47;;;18.60;45.00;;;;;;5116984;28;20034;-59
2022/03/28 03:12:47;;;;;;;7.97;7.18;;;18.60;45.00;;;;;;5117041;28;20016;-59
2022/03/28 03:15:13;;;;;;;8.68;6.30;;;18.60;45.00;;;;;;5117424;28;20069;-59
2022/03/28 03:17:39;;;;;;;9.13;7.47;;;18.60;45.00;;;;;;5117056;28;20027;-59
2022/03/28 03:20:06;;;;;;;9.25;6.82;;;18.60;45.00;;;;;;5116421;28;20031;-58
2022/03/28 03:22:32;;;;;;;7.88;7.07;;;18.60;45.00;;;;;;5114062;28;20016;-58
2022/03/28 03:24:59;;;;;;;11.30;7.70;;;18.60;45.00;;;;;;5113482;28;20104;-58
2022/03/28 03:27:25;;;;;;;8.38;7.40;;;18.60;45.00;;;;;;5113696;28;20012;-59
2022/03/28 03:29:52;;;;;;;8.98;6.95;;;18.60;45.00;;;;;;5113212;28;20064;-58
2022/03/28 03:32:18;;;;;;;11.57;7.28;;;18.60;45.00;;;;;;5113320;28;20031;-59
2022/03/28 03:34:44;;;;;;;9.52;8.13;;;18.60;44.90;;;;;;5113343;28;20020;-60
2022/03/28 03:37:09;;;;;;;9.40;6.85;;;18.60;45.00;;;;;;5099944;28;20030;-60
2022/03/28 03:39:36;;;;;;;8.95;6.85;;;18.60;45.00;;;;;;5118861;28;20015;-60
2022/03/28 03:42:03;;;;;;;8.63;6.97;;;18.60;45.00;;;;;;5118637;28;20027;-59
2022/03/28 03:44:29;;;;;;;8.25;7.25;;;18.60;45.00;;;;;;5118594;28;20080;-60
2022/03/28 03:46:55;;;;;;;7.70;6.90;;;18.60;45.00;;;;;;5119682;28;20027;-61
2022/03/28 03:49:21;;;;;;;6.90;6.13;;;18.60;45.00;;;;;;5119423;28;20004;-60
2022/03/28 03:51:48;;;;;;;10.30;7.55;;;18.50;45.00;;;;;;5117044;28;20099;-60
2022/03/28 03:54:13;;;;;;;8.77;7.63;;;18.50;45.00;;;;;;5117239;28;20086;-59
2022/03/28 03:56:39;;;;;;;7.60;6.68;;;18.50;45.00;;;;;;5098011;28;20476;-60
2022/03/28 03:59:06;;;;;;;9.57;6.90;;;18.60;45.00;;;;;;5117340;28;20476;-59
2022/03/28 04:01:32;;;;;;;9.98;6.97;;;18.50;45.00;;;;;;5116857;28;20034;-59
2022/03/28 04:03:59;;;;;;;7.78;6.78;;;18.60;45.00;;;;;;5098525;28;20034;-60
2022/03/28 04:06:25;;;;;;;7.63;6.60;;;18.50;45.00;;;;;;5117960;28;20065;-59
2022/03/28 04:08:52;;;;;;;9.20;6.70;;;18.50;45.00;;;;;;5119879;28;20328;-60
2022/03/28 04:11:18;;;;;;;7.70;6.85;;;18.50;45.00;;;;;;5123658;28;20045;-60
2022/03/28 04:13:44;;;;;;;7.68;6.43;;;18.50;45.00;;;;;;5107291;28;20024;-59
2022/03/28 04:16:11;;;;;;;8.52;7.07;;;18.50;45.00;;;;;;5103731;28;20028;-59
2022/03/28 04:18:37;;;;;;;9.20;6.97;;;18.50;45.00;;;;;;5122316;28;20032;-60
2022/03/28 04:21:03;;;;;;;7.80;6.95;;;18.50;45.00;;;;;;5122432;28;20007;-59
2022/03/28 04:23:30;;;;;;;7.97;6.72;;;18.50;45.00;;;;;;5122430;28;20043;-60
2022/03/28 04:25:56;;;;;;;8.13;6.55;;;18.50;45.00;;;;;;5121568;28;20084;-60
2022/03/28 04:28:22;;;;;;;7.03;6.32;;;18.50;45.00;;;;;;5103619;28;20015;-60
2022/03/28 04:30:50;;;;;;;7.63;6.60;;;18.50;45.00;;;;;;5121718;28;20096;-60
2022/03/28 04:33:17;;;;;;;9.02;6.88;;;18.50;45.00;;;;;;5121683;28;20050;-59
2022/03/28 04:35:43;;;;;;;10.20;6.75;;;18.50;45.00;;;;;;5120337;28;20016;-60
2022/03/28 04:38:10;;;;;;;9.80;7.35;;;18.40;45.00;;;;;;5119012;28;20148;-59
2022/03/28 04:40:37;;;;;;;8.00;6.70;;;18.50;45.00;;;;;;5119341;28;20019;-60
2022/03/28 04:43:03;;;;;;;7.03;6.22;;;18.50;45.00;;;;;;5119556;28;20020;-61
2022/03/28 04:45:30;;;;;;;7.30;6.40;;;18.50;45.00;;;;;;5118797;28;20031;-61
2022/03/28 04:47:56;;;;;;;8.52;6.63;;;18.50;45.00;;;;;;5119001;28;20076;-61
2022/03/28 04:50:22;;;;;;;9.73;7.05;;;18.50;45.00;;;;;;5099892;28;20514;-60
2022/03/28 04:52:48;;;;;;;10.75;6.80;;;18.50;45.00;;;;;;5116735;28;20016;-61
2022/03/28 04:55:14;;;;;;;8.00;6.63;;;18.40;44.90;;;;;;5116817;28;20020;-60
2022/03/28 04:57:40;;;;;;;7.47;6.07;;;18.50;45.00;;;;;;5117231;28;20024;-60
2022/03/28 05:00:07;;;;;;;7.15;6.20;;;18.40;44.90;;;;;;5099069;28;20020;-60
2022/03/28 05:02:34;;;;;;;7.47;5.78;;;18.40;45.00;;;;;;5098726;28;20020;-60
2022/03/28 05:04:59;;;;;;;7.30;6.50;;;18.40;45.50;;;;;;5117509;28;20020;-60
2022/03/28 05:07:26;;;;;;;6.85;5.88;;;18.40;45.00;;;;;;5119292;28;20363;-60
2022/03/28 05:09:53;;;;;;;7.03;6.32;;;18.40;45.00;;;;;;5120459;28;20012;-61
2022/03/28 05:12:20;;;;;;;8.80;6.07;;;18.40;44.90;;;;;;5120446;28;20007;-62
2022/03/28 05:14:46;;;;;;;9.15;6.47;;;18.40;45.00;;;;;;5120868;28;20504;-61
2022/03/28 05:17:12;;;;;;;7.13;6.43;;;18.40;44.90;;;;;;5102467;28;20020;-62
2022/03/28 05:19:38;;;;;;;6.88;6.00;;;18.40;44.90;;;;;;5120143;28;20081;-60
2022/03/28 05:22:04;;;;;;;8.25;6.32;;;18.40;44.90;;;;;;5097207;28;20393;-60
2022/03/28 05:24:29;;;;;;;7.45;6.13;;;18.30;45.00;;;;;;5097381;28;20058;-60
2022/03/28 05:26:56;;;;;;;6.82;6.03;;;18.30;45.00;;;;;;5115791;28;20039;-60
2022/03/28 05:29:24;;;;;;;8.70;6.70;;;18.30;44.50;;;;;;5115692;28;20082;-60
2022/03/28 05:31:50;;;;;;;10.23;6.13;;;18.30;44.20;;;;;;5097703;28;20045;-60
2022/03/28 05:34:16;;;;;;;9.50;6.50;;;18.30;44.00;;;;;;5097264;28;20019;-60
2022/03/28 05:36:43;;;;;;;7.43;6.47;;;18.30;44.00;;;;;;5117715;28;20024;-60
2022/03/28 05:39:09;;;;;;;8.38;6.47;;;18.40;44.00;;;;;;5117829;28;20020;-61
2022/03/28 05:41:35;;;;;;;11.35;7.15;;;18.40;44.10;;;;;;5117764;28;20019;-61
2022/03/28 05:44:01;;;;;;;9.40;5.97;;;18.40;44.10;;;;;;5098767;28;20490;-61
2022/03/28 05:46:27;;;;;;;7.03;5.78;;;18.40;44.20;;;;;;5118036;28;20076;-61
2022/03/28 05:48:54;;;;;;;7.53;6.07;;;18.40;44.20;;;;;;5117934;28;20016;-60
2022/03/28 05:51:19;;;;;;;12.77;6.28;;;18.40;44.20;;;;;;5098836;28;20064;-61
2022/03/28 05:53:45;;;;;;;8.43;6.05;;;18.40;44.20;;;;;;5117876;28;20505;-61
2022/03/28 05:56:11;;;;;;;8.93;6.10;;;18.40;44.20;;;;;;5116708;28;20497;-60
2022/03/28 05:58:37;;;;;;;13.27;6.65;;;18.40;44.30;;;;;;5116698;28;20123;-61
2022/03/28 06:01:03;;;;;;;10.02;6.00;;;18.40;44.20;;;;;;5099197;28;20012;-61
2022/03/28 06:03:29;;;;;;;10.18;6.30;;;18.30;44.20;;;;;;5116805;28;20023;-60
2022/03/28 06:05:55;;;;;;;7.32;6.20;;;18.40;44.30;;;;;;5099162;28;20107;-61
2022/03/28 06:08:21;;;;;;;9.23;6.35;;;18.30;44.30;;;;;;5116684;28;20165;-60
2022/03/28 06:10:47;;;;;;;6.57;5.47;;;18.30;44.30;;;;;;5116790;28;20473;-61
2022/03/28 06:13:13;;;;;;;8.13;6.03;;;18.40;44.40;;;;;;5115782;28;20458;-60
2022/03/28 06:15:39;;;;;;;7.18;5.75;;;18.30;44.30;;;;;;5116561;28;20071;-61
2022/03/28 06:18:06;;;;;;;8.70;6.03;;;18.40;44.40;;;;;;5096450;28;20012;-60
2022/03/28 06:20:33;;;;;;;16.88;8.07;;;18.30;44.10;;;;;;5113149;28;20106;-59
2022/03/28 06:23:00;;;;;;;39.25;9.30;;;18.20;45.20;;;;;;5094605;28;20029;-58
2022/03/28 06:25:26;;;;;;;26.73;9.80;;;18.00;44.40;;;;;;5094735;28;20026;-59
2022/03/28 06:27:52;;;;;;;25.30;9.57;;;17.40;44.90;;;;;;5112286;28;20007;-58
2022/03/28 06:30:18;;;;;;;27.00;11.35;;;17.10;45.70;;;;;;5111718;28;20047;-61
2022/03/28 06:32:44;;;;;;;23.63;10.68;;;17.20;46.20;;;;;;5093893;28;20076;-60
2022/03/28 06:35:10;;;;;;;27.20;10.50;;;17.10;46.20;;;;;;5112137;28;20015;-58
2022/03/28 06:37:36;;;;;;;21.92;10.60;;;17.00;46.80;;;;;;5093549;28;20509;-58
2022/03/28 06:40:03;;;;;;;25.60;10.23;;;17.00;46.80;;;;;;5112000;28;20448;-58
2022/03/28 06:42:31;;;;;;;29.00;10.35;;;17.00;47.10;;;;;;5093897;28;20030;-58
2022/03/28 06:44:57;;;;;;;23.52;10.95;;;17.10;46.60;;;;;;5111987;28;20068;-59
2022/03/28 06:47:23;;;;;;;33.35;12.60;;;17.10;46.90;;;;;;5112366;28;20011;-59
2022/03/28 06:49:49;;;;;;;23.55;10.43;;;17.10;46.60;;;;;;5112296;28;20012;-59
2022/03/28 06:52:15;;;;;;;26.15;10.43;;;17.30;46.10;;;;;;5112269;28;20024;-59
2022/03/28 06:54:41;;;;;;;31.98;11.70;;;17.40;46.10;;;;;;5093973;28;20493;-60
2022/03/28 06:57:07;;;;;;;30.25;11.00;;;17.50;45.70;;;;;;5112736;28;20027;-59
2022/03/28 06:59:33;;;;;;;31.02;11.35;;;17.60;46.20;;;;;;5112471;28;20503;-59
2022/03/28 07:01:58;;;;;;;23.70;10.63;;;17.70;45.70;;;;;;5112502;28;20478;-59
2022/03/28 07:04:25;;;;;;;22.98;10.13;;;17.70;45.90;;;;;;5112133;28;20072;-60
2022/03/28 07:06:50;;;;;;;22.73;10.38;;;17.80;46.00;;;;;;5112003;28;20374;-61
2022/03/28 07:09:16;;;;;;;26.70;10.38;;;17.80;45.80;;;;;;5111925;28;20648;-59
2022/03/28 07:11:43;;;;;;;23.10;11.00;;;17.80;45.80;;;;;;5077578;28;20114;-60
2022/03/28 07:14:09;;;;;;;30.25;10.43;;;17.90;45.70;;;;;;5111399;28;20434;-59
2022/03/28 07:16:35;;;;;;;31.67;11.32;;;17.90;45.60;;;;;;5111069;28;20023;-59
2022/03/28 07:19:01;;;;;;;23.48;11.10;;;17.90;45.50;;;;;;5111457;28;20035;-58
2022/03/28 07:21:27;;;;;;;36.13;11.77;;;17.90;45.50;;;;;;5111425;28;20020;-58
2022/03/28 07:23:53;;;;;;;27.30;11.07;;;17.80;45.60;;;;;;5111718;28;20107;-59
2022/03/28 07:26:20;;;;;;;22.25;11.52;;;17.90;45.30;;;;;;5112144;28;20500;-58
2022/03/28 07:28:46;;;;;;;19.95;11.20;;;17.80;45.50;;;;;;5112633;28;20015;-59
2022/03/28 07:31:12;;;;;;;21.65;10.18;;;17.90;45.40;;;;;;5113505;28;20028;-59
2022/03/28 07:33:39;;;;;;;24.20;11.00;;;17.90;45.70;;;;;;5113674;28;20474;-58
2022/03/28 07:36:04;;;;;;;25.75;10.68;;;18.00;45.90;;;;;;5114409;28;20016;-59
2022/03/28 07:38:30;;;;;;;28.13;10.45;;;18.10;47.20;;;;;;5096423;28;20424;-59
2022/03/28 07:40:56;;;;;;;20.23;11.15;;;18.10;45.80;;;;;;5114109;28;20351;-59
2022/03/28 07:43:23;;;;;;;22.95;10.65;;;18.10;45.70;;;;;;5113690;28;20039;-59
2022/03/28 07:45:50;;;;;;;22.98;11.25;;;18.10;45.60;;;;;;5115589;28;20023;-60
2022/03/28 07:48:16;;;;;;;26.83;11.20;;;18.10;45.50;;;;;;5118485;28;20008;-59
2022/03/28 07:50:44;;;;;;;21.75;11.07;;;18.10;45.90;;;;;;5118227;28;20046;-59
2022/03/28 07:53:10;;;;;;;27.30;11.70;;;18.00;45.80;;;;;;5118377;28;20020;-58
2022/03/28 07:55:37;;;;;;;37.95;11.77;;;18.00;46.10;;;;;;5117736;28;20039;-59
2022/03/28 07:58:03;;;;;;;33.55;11.90;;;18.00;45.90;;;;;;5118037;28;20020;-58
2022/03/28 08:00:29;;;;;;;29.17;11.63;;;18.10;45.80;;;;;;5099391;28;20053;-59
2022/03/28 08:02:56;;;;;;;26.17;11.23;;;18.20;45.90;;;;;;5117225;28;20462;-58
2022/03/28 08:05:22;;;;;;;30.77;11.63;;;18.10;46.50;;;;;;5099823;28;20036;-59
2022/03/28 08:07:52;;;;;;;33.92;12.85;;;18.20;46.00;;;;;;5119427;28;20462;-58
2022/03/28 08:10:18;;;;;;;35.40;12.57;;;18.20;46.40;;;;;;5119267;28;20012;-57
2022/03/28 08:12:44;;;;;;;35.28;12.68;;;18.30;45.90;;;;;;5118775;28;20000;-58
2022/03/28 08:15:11;;;;;;;39.20;12.25;;;18.50;45.40;;;;;;5117892;28;20046;-59
2022/03/28 08:17:39;;;;;;;31.77;12.15;;;18.50;44.90;;;;;;5117329;28;20068;-59
2022/03/28 08:20:09;;;;;;;27.80;12.50;;;18.50;44.90;;;;;;5118124;28;20098;-57
2022/03/28 08:22:39;;;;;;;32.73;13.30;;;18.50;44.90;;;;;;5117689;28;20154;-57
2022/03/28 08:25:05;;;;;;;27.98;12.98;;;18.30;45.10;;;;;;5117794;28;20031;-58
2022/03/28 08:27:31;;;;;;;25.20;14.50;;;18.30;45.20;;;;;;5118231;28;20008;-58
2022/03/28 08:29:57;;;;;;;25.25;14.55;;;18.30;45.00;;;;;;5117781;28;20630;-58
2022/03/28 08:32:23;;;;;;;25.95;14.20;;;18.00;45.60;;;;;;5117953;28;20053;-56
2022/03/28 08:34:50;;;;;;;23.92;14.23;;;18.00;45.60;;;;;;5117593;28;20016;-58
2022/03/28 08:37:16;;;;;;;30.13;14.98;;;18.10;45.50;;;;;;5117573;28;20032;-56
2022/03/28 08:39:45;;;;;;;30.08;14.68;;;17.80;46.30;;;;;;5118056;28;20011;-58
2022/03/28 08:42:12;;;;;;;41.70;17.20;;;17.90;46.40;;;;;;5117447;28;20011;-53
2022/03/28 08:44:39;;;;;;;37.92;16.23;;;18.00;46.00;;;;;;5118274;28;20118;-58
2022/03/28 08:47:05;;;;;;;29.65;16.88;;;17.30;47.40;;;;;;5099350;28;20007;-58
2022/03/28 08:49:30;;;;;;;26.80;15.43;;;17.20;48.30;;;;;;5117120;28;20379;-56
2022/03/28 08:51:56;;;;;;;29.10;16.05;;;17.40;48.40;;;;;;5098572;28;20102;-56
2022/03/28 08:54:22;;;;;;;26.48;15.23;;;17.60;47.90;;;;;;5098163;28;20024;-58
2022/03/28 08:56:48;;;;;;;28.25;15.68;;;17.90;47.60;;;;;;5098006;28;20473;-58
2022/03/28 08:59:14;;;;;;;35.15;17.02;;;18.00;47.40;;;;;;5097990;28;20479;-58
2022/03/28 09:01:43;;;;;;;35.47;16.98;;;18.00;46.90;;;;;;5116721;28;20028;-58
2022/03/28 09:04:10;;;;;;;30.63;16.38;;;17.60;47.70;;;;;;5116593;28;20019;-57
2022/03/28 09:06:41;;;;;;;27.77;16.42;;;17.50;48.00;;;;;;5116267;28;20110;-59
2022/03/28 09:09:13;;;;;;;31.33;17.45;;;17.20;48.40;;;;;;5114973;28;20008;-58
2022/03/28 09:11:42;;;;;;;30.25;16.90;;;17.50;48.60;;;;;;5097323;28;20018;-58
2022/03/28 09:14:11;;;;;;;28.75;14.80;;;17.90;47.50;;;;;;5115001;28;20454;-58
2022/03/28 09:16:37;;;;;;;30.08;15.38;;;18.30;46.40;;;;;;5114985;28;20046;-59
2022/03/28 09:19:08;;;;;;;28.50;15.00;;;18.50;45.90;;;;;;5096860;28;20012;-58
2022/03/28 09:21:34;;;;;;;26.40;14.18;;;18.70;45.40;;;;;;5115703;28;20039;-59
2022/03/28 09:24:00;;;;;;;30.77;15.05;;;18.80;45.00;;;;;;5115263;28;20512;-58
2022/03/28 09:26:26;;;;;;;23.00;13.52;;;19.00;44.80;;;;;;5063163;28;20020;-58
2022/03/28 09:28:56;;;;;;;22.40;13.32;;;19.10;44.30;;;;;;5115630;28;20023;-58
2022/03/28 09:31:32;;;;;;;21.58;13.63;;;19.20;44.00;;;;;;5115078;28;20119;-58
2022/03/28 09:34:15;;;;;;;19.95;13.18;;;19.40;43.90;;;;;;5115169;28;20478;-58
2022/03/28 09:36:41;;;;;;;21.50;12.38;;;19.40;43.70;;;;;;5115161;28;20020;-58
2022/03/28 09:39:12;;;;;;;21.13;13.63;;;19.50;43.60;;;;;;5114564;28;20073;-58
2022/03/28 09:41:37;;;;;;;20.33;12.23;;;19.50;43.50;;;;;;5114957;28;20015;-59
2022/03/28 09:44:04;;;;;;;22.55;12.68;;;19.60;43.40;;;;;;5114746;28;20525;-58
2022/03/28 09:46:32;;;;;;;21.38;12.55;;;19.60;43.30;;;;;;5114835;28;20004;-58
2022/03/28 09:48:59;;;;;;;24.00;12.02;;;19.70;43.20;;;;;;5114497;28;20010;-59
2022/03/28 09:51:29;;;;;;;20.63;12.50;;;19.70;43.00;;;;;;5114891;28;20068;-58
2022/03/28 09:53:55;;;;;;;22.25;11.98;;;19.90;42.80;;;;;;5114661;28;20090;-59
2022/03/28 09:56:21;;;;;;;18.10;11.30;;;19.80;42.60;;;;;;5114697;28;20058;-58
2022/03/28 09:58:49;;;;;;;17.77;11.52;;;19.90;42.50;;;;;;5114668;28;20023;-58
2022/03/28 10:01:22;;;;;;;25.63;12.07;;;19.90;42.60;;;;;;5114909;28;20038;-59
2022/03/28 10:03:50;;;;;;;19.70;11.70;;;19.90;42.50;;;;;;5114860;28;20035;-58
2022/03/28 10:06:16;;;;;;;16.67;11.18;;;19.90;42.50;;;;;;5114449;28;20012;-59
2022/03/28 10:08:43;;;;;;;22.60;11.95;;;20.00;42.50;;;;;;5113948;28;20019;-59
2022/03/28 10:11:11;;;;;;;18.48;10.40;;;20.10;42.30;;;;;;5096397;28;20024;-59
2022/03/28 10:13:37;;;;;;;14.98;9.85;;;20.20;42.00;;;;;;5114549;28;20012;-58
2022/03/28 10:16:05;;;;;;;19.05;10.15;;;20.20;41.80;;;;;;5114382;28;20019;-58
2022/03/28 10:18:35;;;;;;;17.63;10.30;;;20.40;41.70;;;;;;5114529;28;20026;-58
2022/03/28 10:21:19;;;;;;;19.60;10.00;;;20.40;41.30;;;;;;5114412;28;20012;-59
2022/03/28 10:24:07;;;;;;;15.10;9.23;;;20.50;41.10;;;;;;5114178;28;20024;-58
2022/03/28 10:26:35;;;;;;;14.38;9.15;;;20.60;41.00;;;;;;5095800;28;20019;-58
2022/03/28 10:29:13;;;;;;;19.40;9.07;;;20.70;40.60;;;;;;5114399;28;20098;-57
2022/03/28 10:31:55;;;;;;;16.67;9.07;;;20.80;40.40;;;;;;5113764;28;20026;-58
2022/03/28 10:34:40;;;;;;;14.80;9.30;;;20.90;40.00;;;;;;5114091;28;20073;-58
2022/03/28 10:37:38;;;;;;;18.45;11.60;;;20.80;39.70;;;;;;5114058;28;20055;-59
2022/03/28 10:40:24;;;;;;;19.20;11.63;;;20.50;39.30;;;;;;5113909;28;20029;-58
2022/03/28 10:43:02;;;;;;;16.33;10.35;;;20.20;39.70;;;;;;5113862;28;20031;-58
2022/03/28 10:45:33;;;;;;;14.43;10.00;;;20.30;39.80;;;;;;5113145;28;20112;-58
2022/03/28 10:48:00;;;;;;;17.88;11.32;;;20.50;39.40;;;;;;5112474;28;20035;-57
2022/03/28 10:50:28;;;;;;;17.52;10.07;;;20.50;39.50;;;;;;5112881;28;20161;-58
2022/03/28 10:53:08;;;;;;;23.10;11.13;;;20.60;40.00;;;;;;5113268;28;20018;-58
2022/03/28 10:55:47;;;;;;;24.92;11.88;;;20.60;40.10;;;;;;5113003;28;20131;-55
2022/03/28 10:58:19;;;;;;;32.63;13.52;;;20.70;40.20;;;;;;5113336;28;20016;-57
2022/03/28 11:01:11;;;;;;;27.27;14.15;;;20.50;39.60;;;;;;5113482;28;20034;-56
2022/03/28 11:03:36;;;;;;;21.83;13.63;;;20.20;40.20;;;;;;5113647;28;20092;-56
2022/03/28 11:06:03;;;;;;;23.25;13.60;;;20.30;40.40;;;;;;5113250;28;20026;-56
2022/03/28 11:08:39;;;;;;;28.92;15.63;;;20.30;40.50;;;;;;5094848;28;20043;-57
2022/03/28 11:11:27;;;;;;;23.88;13.65;;;20.20;40.00;;;;;;5113126;28;20012;-55
2022/03/28 11:14:04;;;;;;;25.23;14.35;;;20.40;40.70;;;;;;5113617;28;20012;-53
2022/03/28 11:16:56;;;;;;;19.20;13.75;;;20.60;40.70;;;;;;5113443;28;20012;-56
2022/03/28 11:19:29;;;;;;;21.80;13.95;;;20.70;40.00;;;;;;5091218;28;20085;-56
2022/03/28 11:22:10;;;;;;;22.17;13.27;;;20.80;39.80;;;;;;5116449;28;20046;-55
2022/03/28 11:24:56;;;;;;;20.90;13.73;;;21.00;40.00;;;;;;5099453;28;20035;-57
2022/03/28 11:27:31;;;;;;;21.20;14.02;;;21.20;40.20;;;;;;5117230;28;20032;-56
2022/03/28 11:30:01;;;;;;;28.25;14.98;;;21.30;40.00;;;;;;5116988;28;20566;-56
2022/03/28 11:32:31;;;;;;;30.27;15.23;;;21.30;39.50;;;;;;5117181;28;20474;-54
2022/03/28 11:34:57;;;;;;;27.00;16.90;;;21.50;39.50;;;;;;5117104;28;20469;-54
2022/03/28 11:37:26;;;;;;;36.10;19.02;;;21.30;39.50;;;;;;5117021;28;20019;-53
2022/03/28 11:40:00;;;;;;;33.42;19.80;;;21.30;39.40;;;;;;5116186;28;20026;-54
2022/03/28 11:42:30;;;;;;;38.15;21.17;;;21.10;39.10;;;;;;5097714;28;20038;-55
2022/03/28 11:44:57;;;;;;;38.87;21.93;;;20.90;38.90;;;;;;5116673;28;20026;-57
2022/03/28 11:47:23;;;;;;;37.22;21.38;;;21.00;39.50;;;;;;5116817;28;20254;-58
2022/03/28 11:49:57;;;;;;;34.50;18.52;;;21.10;40.10;;;;;;5116851;28;20061;-55
2022/03/28 11:52:24;;;;;;;35.72;22.70;;;21.30;40.10;;;;;;5116522;28;20008;-53
2022/03/28 11:54:51;;;;;;;34.80;22.30;;;21.30;39.30;;;;;;5116310;28;20019;-53
2022/03/28 12:00:32;;;;;;;32.78;20.95;;;21.40;38.70;;;;;;5116950;28;20042;-54
2022/03/28 12:03:00;;;;;;;30.63;20.80;;;21.20;38.70;;;;;;5098452;28;20015;-55
2022/03/28 12:05:30;;;;;;;36.10;20.30;;;21.00;39.20;;;;;;5116948;28;20540;-57
2022/03/28 12:07:56;;;;;;;36.30;20.30;;;21.10;39.50;;;;;;5116472;28;20085;-52
2022/03/28 12:10:29;;;;;;;32.72;18.80;;;21.30;39.70;;;;;;5116760;28;20012;-58
2022/03/28 12:12:57;;;;;;;30.30;18.38;;;21.30;39.70;;;;;;5116834;28;20106;-58
2022/03/28 12:15:29;;;;;;;37.55;18.13;;;21.60;39.70;;;;;;5098581;28;20148;-57
2022/03/28 12:17:57;;;;;;;29.77;16.48;;;21.70;39.60;;;;;;5116277;28;20373;-55
2022/03/28 12:20:24;;;;;;;37.38;16.50;;;21.90;39.50;;;;;;5116144;28;20020;-56
2022/03/28 12:22:50;;;;;;;31.95;16.00;;;22.00;39.50;;;;;;5116613;28;20024;-56
2022/03/28 12:25:26;;;;;;;25.42;16.10;;;22.10;39.60;;;;;;5116574;28;20387;-56
2022/03/28 12:27:57;;;;;;;24.10;15.85;;;22.00;38.60;;;;;;5116116;28;20461;-55
2022/03/28 12:30:38;;;;;;;30.80;16.17;;;21.90;39.00;;;;;;5116000;28;20043;-57
2022/03/28 12:33:14;;;;;;;25.42;15.82;;;21.80;38.80;;;;;;5116271;28;20018;-55
2022/03/28 12:35:45;;;;;;;22.95;14.48;;;21.70;38.80;;;;;;5117519;28;20068;-56
2022/03/28 12:38:17;;;;;;;23.40;13.88;;;21.70;39.10;;;;;;5116735;28;20126;-57
2022/03/28 12:40:46;;;;;;;19.48;12.90;;;21.70;38.60;;;;;;5116038;28;20016;-56
2022/03/28 12:43:12;;;;;;;22.20;13.20;;;21.90;38.50;;;;;;5098175;28;20442;-58
2022/03/28 12:45:42;;;;;;;25.63;13.75;;;22.00;38.50;;;;;;5115727;28;20023;-58